サンフランシスコ の空港の天気 - METARとTAF

サンフランシスコ国際空港 ( KSFO / SFO ) - アメリカ カリフォルニア州サンマテオ郡
飛行場実況気象(Metar)
観測時間05/28 02:56 PDT (05/28 09:56 UTC)
風向・風速西 7m/s
視程10km以上
天気現象
少しの雲 雲底高度 120m
全天の4割程度の雲 雲底高度 240m
全天の8割程度の雲 雲底高度 3660m
気温13.9℃
湿度83%
気圧1015.3hPa
METARKSFO 280956Z 26013KT 10SM FEW004 SCT008 BKN120 14/11 A2998 RMK AO2 SLP153 T01390111
過去の天気等 Google飛行場航空写真 Wunderground天気予報

過去48時間のMETAR

飛行場予報(TAF)
発表時間: 5/28 02:04 PDT (5/28 09:04 UTC)
予報対象時間: 28日2時 PDT ~ 29日5時 PDT
風向・風速西 4m/s
視程10km以上
少しの雲 雲底高度 150m
全天の8割程度の雲 雲底高度 240m
28日10時 PDT から
風向・風速西 4m/s
視程10km以上
少しの雲 雲底高度 300m
全天の4割程度の雲 雲底高度 6100m
28日14時 PDT から
風向・風速西 6m/s 瞬間風速 11m/s
視程10km以上
少しの雲 雲底高度 610m
全天の4割程度の雲 雲底高度 3050m
28日22時 PDT から
風向・風速西 3m/s
視程10km以上
全天の4割程度の雲 雲底高度 210m
全天の4割程度の雲 雲底高度 430m
全天の8割程度の雲 雲底高度 3050m
29日3時 PDT から
風向・風速西北西 6m/s
視程10km以上
全天の8割程度の雲 雲底高度 1520m
KSFO 280904Z 2809/2912 27008KT P6SM FEW005 BKN008
FM281700 26007KT P6SM FEW010 SCT200
FM282100 28012G22KT P6SM FEW020 SCT100
FM290500 28006KT P6SM SCT007 SCT014 BKN100
FM291000 29011KT P6SM BKN050